Time;durP1;ratioP1;P1;durP2;ratioP2;P2;SDS_P1;SDS_P2;PMS_P1;PMS_P2;Temp;Humidity;BMP_temperature;BMP_pressure;BME280_temperature;BME280_humidity;BME280_pressure;Samples;Min_cycle;Max_cycle;Signal;HPM_P1;HPM_P2
2024/01/29 00:01:04;;;;;;;3.73;2.80;;;;;;;;;;5086604;28;20234;-29
2024/01/29 00:03:31;;;;;;;5.27;3.17;;;;;;;;;;5077663;28;20262;-34
2024/01/29 00:06:00;;;;;;;3.67;2.70;;;;;;;;;;5086790;28;20287;-33
2024/01/29 00:08:27;;;;;;;3.83;2.80;;;;;;;;;;5077221;28;20220;-31
2024/01/29 00:10:54;;;;;;;3.50;2.33;;;;;;;;;;5073325;28;20287;-33
2024/01/29 00:13:21;;;;;;;2.93;2.60;;;;;;;;;;5079436;28;20220;-33
2024/01/29 00:15:48;;;;;;;3.93;3.17;;;;;;;;;;5089354;28;20210;-35
2024/01/29 00:18:15;;;;;;;5.30;3.77;;;;;;;;;;5093533;28;20226;-32
2024/01/29 00:20:43;;;;;;;3.40;2.97;;;;;;;;;;5082462;28;20230;-34
2024/01/29 00:23:11;;;;;;;3.27;2.80;;;;;;;;;;5076759;28;20201;-31
2024/01/29 00:25:38;;;;;;;5.50;3.07;;;;;;;;;;5072024;28;20200;-34
2024/01/29 00:28:07;;;;;;;4.27;3.20;;;;;;;;;;5078269;28;20215;-36
2024/01/29 00:30:34;;;;;;;3.97;3.03;;;;;;;;;;5093695;28;20307;-32
2024/01/29 00:33:01;;;;;;;6.33;3.50;;;;;;;;;;5084279;28;20208;-31
2024/01/29 00:35:28;;;;;;;5.30;3.97;;;;;;;;;;5082745;28;20219;-35
2024/01/29 00:37:55;;;;;;;4.90;3.30;;;;;;;;;;5075412;28;20482;-33
2024/01/29 00:40:25;;;;;;;5.23;3.13;;;;;;;;;;5079473;28;20225;-37
2024/01/29 00:42:52;;;;;;;5.97;4.07;;;;;;;;;;5072391;28;20204;-37
2024/01/29 00:45:20;;;;;;;5.13;4.50;;;;;;;;;;5090676;28;20216;-31
2024/01/29 00:47:47;;;;;;;5.23;4.10;;;;;;;;;;5086583;28;20204;-36
2024/01/29 00:50:14;;;;;;;4.67;4.13;;;;;;;;;;5088356;28;20220;-32
2024/01/29 00:52:41;;;;;;;5.57;4.40;;;;;;;;;;5086527;28;20233;-28
2024/01/29 00:55:09;;;;;;;6.63;4.97;;;;;;;;;;5076252;28;20197;-32
2024/01/29 00:57:37;;;;;;;6.53;4.27;;;;;;;;;;5086686;28;20225;-32
2024/01/29 01:00:06;;;;;;;6.63;4.13;;;;;;;;;;5076529;28;20233;-31
2024/01/29 01:02:33;;;;;;;6.80;4.47;;;;;;;;;;5087683;28;20216;-29
2024/01/29 01:05:00;;;;;;;8.93;4.43;;;;;;;;;;5080213;28;20205;-34
2024/01/29 01:07:28;;;;;;;6.67;4.57;;;;;;;;;;5088855;28;20249;-31
2024/01/29 01:09:56;;;;;;;8.53;4.97;;;;;;;;;;5080256;28;20228;-31
2024/01/29 01:12:23;;;;;;;5.53;4.27;;;;;;;;;;5100457;28;20224;-31
2024/01/29 01:14:51;;;;;;;7.30;4.40;;;;;;;;;;5108277;28;20268;-32
2024/01/29 01:17:18;;;;;;;8.33;5.03;;;;;;;;;;5099136;28;20221;-35
2024/01/29 01:19:45;;;;;;;8.27;4.23;;;;;;;;;;5095165;28;20229;-29
2024/01/29 01:22:14;;;;;;;5.37;4.10;;;;;;;;;;5085889;28;20204;-34
2024/01/29 01:24:41;;;;;;;8.20;4.53;;;;;;;;;;5086602;28;20229;-36
2024/01/29 01:27:09;;;;;;;7.43;5.10;;;;;;;;;;5097788;28;20199;-36
2024/01/29 01:29:36;;;;;;;5.37;4.23;;;;;;;;;;5102374;28;20224;-40
2024/01/29 01:32:04;;;;;;;5.23;4.03;;;;;;;;;;5104651;28;20228;-37
2024/01/29 01:34:32;;;;;;;6.80;4.67;;;;;;;;;;5087594;28;20201;-31
2024/01/29 01:36:59;;;;;;;7.13;4.67;;;;;;;;;;5091625;28;20217;-37
2024/01/29 01:39:26;;;;;;;6.47;4.70;;;;;;;;;;5085055;28;20200;-33
2024/01/29 01:41:53;;;;;;;5.30;4.17;;;;;;;;;;5086185;28;20203;-35
2024/01/29 01:44:20;;;;;;;7.47;4.30;;;;;;;;;;5098640;28;20208;-33
2024/01/29 01:46:48;;;;;;;6.23;4.27;;;;;;;;;;5096786;28;20211;-36
2024/01/29 01:49:16;;;;;;;7.13;4.47;;;;;;;;;;5093821;28;20212;-33
2024/01/29 01:51:44;;;;;;;8.87;5.03;;;;;;;;;;5107392;28;20230;-32
2024/01/29 01:54:12;;;;;;;7.57;4.40;;;;;;;;;;5090355;28;20224;-30
2024/01/29 01:56:40;;;;;;;5.97;4.27;;;;;;;;;;5085343;28;20206;-33
2024/01/29 01:59:08;;;;;;;5.43;4.43;;;;;;;;;;5099220;28;20294;-33
2024/01/29 02:01:35;;;;;;;6.43;4.47;;;;;;;;;;5088925;28;20204;-32
2024/01/29 02:04:02;;;;;;;6.13;4.70;;;;;;;;;;5099199;28;20204;-35
2024/01/29 02:06:31;;;;;;;5.47;4.63;;;;;;;;;;5109610;28;20204;-36
2024/01/29 02:08:58;;;;;;;6.73;4.53;;;;;;;;;;5088161;28;20204;-32
2024/01/29 02:11:25;;;;;;;7.33;4.87;;;;;;;;;;5079913;28;20239;-33
2024/01/29 02:13:52;;;;;;;5.27;4.17;;;;;;;;;;5089631;28;20205;-35
2024/01/29 02:16:20;;;;;;;6.53;4.30;;;;;;;;;;5091578;28;20208;-35
2024/01/29 02:18:47;;;;;;;6.00;4.50;;;;;;;;;;5085851;28;20211;-34
2024/01/29 02:21:14;;;;;;;6.13;4.33;;;;;;;;;;5096132;28;20228;-30
2024/01/29 02:23:45;;;;;;;6.73;5.23;;;;;;;;;;5092000;28;20218;-29
2024/01/29 02:26:12;;;;;;;6.53;4.43;;;;;;;;;;5079269;28;20650;-34
2024/01/29 02:28:40;;;;;;;6.53;4.10;;;;;;;;;;5095836;28;20204;-35
2024/01/29 02:31:07;;;;;;;6.47;4.50;;;;;;;;;;5099116;28;20217;-33
2024/01/29 02:33:34;;;;;;;6.23;4.53;;;;;;;;;;5100363;28;20227;-37
2024/01/29 02:36:01;;;;;;;5.93;4.40;;;;;;;;;;5078198;28;20295;-35
2024/01/29 02:38:28;;;;;;;6.93;4.40;;;;;;;;;;5103713;28;20208;-31
2024/01/29 02:40:57;;;;;;;5.97;4.70;;;;;;;;;;5086499;28;20226;-35
2024/01/29 02:43:24;;;;;;;6.23;4.40;;;;;;;;;;5094423;28;20200;-32
2024/01/29 02:45:51;;;;;;;9.30;4.47;;;;;;;;;;5099269;28;20208;-33
2024/01/29 02:48:19;;;;;;;6.03;4.60;;;;;;;;;;5096099;28;20204;-34
2024/01/29 02:50:46;;;;;;;6.60;4.30;;;;;;;;;;5093984;28;20225;-38
2024/01/29 02:53:13;;;;;;;6.37;4.70;;;;;;;;;;5105762;28;20227;-36
2024/01/29 02:55:41;;;;;;;5.53;4.27;;;;;;;;;;5072961;28;20201;-34
2024/01/29 02:58:09;;;;;;;5.63;3.80;;;;;;;;;;5099987;28;20211;-33
2024/01/29 03:00:36;;;;;;;5.30;4.33;;;;;;;;;;5110125;28;20228;-34
2024/01/29 03:03:04;;;;;;;3.87;3.57;;;;;;;;;;5103775;28;20290;-30
2024/01/29 03:05:31;;;;;;;4.60;3.80;;;;;;;;;;5091972;28;20205;-32
2024/01/29 03:07:58;;;;;;;6.83;4.57;;;;;;;;;;5088969;28;20205;-38
2024/01/29 03:10:25;;;;;;;6.07;4.53;;;;;;;;;;5085798;28;20255;-33
2024/01/29 03:12:52;;;;;;;6.90;4.20;;;;;;;;;;5094545;28;20314;-32
2024/01/29 03:15:21;;;;;;;6.93;4.27;;;;;;;;;;5103984;28;20290;-33
2024/01/29 03:17:48;;;;;;;5.03;4.27;;;;;;;;;;5103168;28;20208;-35
2024/01/29 03:20:15;;;;;;;7.00;4.50;;;;;;;;;;5087568;28;20239;-31
2024/01/29 03:22:42;;;;;;;5.90;4.57;;;;;;;;;;5086924;28;20205;-33
2024/01/29 03:25:09;;;;;;;6.63;4.57;;;;;;;;;;5085695;28;20215;-33
2024/01/29 03:27:37;;;;;;;5.80;3.90;;;;;;;;;;5094154;28;20210;-31
2024/01/29 03:30:04;;;;;;;5.53;4.30;;;;;;;;;;5105409;28;20235;-29
2024/01/29 03:32:32;;;;;;;6.83;4.10;;;;;;;;;;5087383;28;20227;-36
2024/01/29 03:34:59;;;;;;;6.63;4.50;;;;;;;;;;5083948;28;20203;-32
2024/01/29 03:37:27;;;;;;;7.70;4.53;;;;;;;;;;5101413;28;20212;-32
2024/01/29 03:39:54;;;;;;;7.13;4.27;;;;;;;;;;5083141;28;20281;-32
2024/01/29 03:42:21;;;;;;;6.53;4.60;;;;;;;;;;5089241;28;20200;-34
2024/01/29 03:44:48;;;;;;;6.33;4.53;;;;;;;;;;5090515;28;20208;-29
2024/01/29 03:47:15;;;;;;;7.97;4.67;;;;;;;;;;5094198;28;20204;-31
2024/01/29 03:49:44;;;;;;;5.80;4.60;;;;;;;;;;5090376;28;20228;-30
2024/01/29 03:52:11;;;;;;;5.60;4.70;;;;;;;;;;5088955;28;20219;-34
2024/01/29 03:54:38;;;;;;;6.57;4.53;;;;;;;;;;5089926;28;20230;-34
2024/01/29 03:57:06;;;;;;;5.10;4.30;;;;;;;;;;5086273;28;20222;-34
2024/01/29 03:59:34;;;;;;;5.50;4.60;;;;;;;;;;5101042;28;20247;-32
2024/01/29 04:02:02;;;;;;;7.40;5.23;;;;;;;;;;5096587;28;20284;-32
2024/01/29 04:04:29;;;;;;;5.10;4.47;;;;;;;;;;5081837;28;20216;-31
2024/01/29 04:06:57;;;;;;;5.47;4.40;;;;;;;;;;5106924;28;20249;-36
2024/01/29 04:09:24;;;;;;;4.83;4.00;;;;;;;;;;5087175;28;20237;-35
2024/01/29 04:11:53;;;;;;;8.70;4.53;;;;;;;;;;5075951;28;20213;-35
2024/01/29 04:14:22;;;;;;;6.27;4.50;;;;;;;;;;5100403;28;20212;-33
2024/01/29 04:16:49;;;;;;;9.27;4.70;;;;;;;;;;5099622;28;20417;-36
2024/01/29 04:19:16;;;;;;;6.73;4.70;;;;;;;;;;5081872;28;20208;-35
2024/01/29 04:21:43;;;;;;;5.27;4.43;;;;;;;;;;5096404;28;20218;-32
2024/01/29 04:24:12;;;;;;;8.93;6.07;;;;;;;;;;5088698;28;20209;-35
2024/01/29 04:26:40;;;;;;;7.83;4.90;;;;;;;;;;5079785;28;20221;-38
2024/01/29 04:29:08;;;;;;;8.03;4.53;;;;;;;;;;5100056;28;20203;-32
2024/01/29 04:31:35;;;;;;;5.60;4.60;;;;;;;;;;5108667;28;20237;-36
2024/01/29 04:34:02;;;;;;;7.17;4.20;;;;;;;;;;5082922;28;20224;-35
2024/01/29 04:36:29;;;;;;;6.60;5.13;;;;;;;;;;5092396;28;20203;-35
2024/01/29 04:38:57;;;;;;;7.10;5.00;;;;;;;;;;5105806;28;20210;-37
2024/01/29 04:41:25;;;;;;;6.60;4.50;;;;;;;;;;5092274;28;20735;-36
2024/01/29 04:43:52;;;;;;;7.57;5.00;;;;;;;;;;5101976;28;20196;-29
2024/01/29 04:46:19;;;;;;;6.57;4.37;;;;;;;;;;5107152;28;20218;-35
2024/01/29 04:48:46;;;;;;;7.30;4.80;;;;;;;;;;5101879;28;20204;-33
2024/01/29 04:51:14;;;;;;;6.50;5.07;;;;;;;;;;5089915;28;20223;-31
2024/01/29 04:53:41;;;;;;;5.17;4.63;;;;;;;;;;5103510;28;20228;-34
2024/01/29 04:56:08;;;;;;;5.37;4.40;;;;;;;;;;5074246;28;20196;-31
2024/01/29 04:58:37;;;;;;;6.63;5.37;;;;;;;;;;5087503;28;20208;-33
2024/01/29 05:01:04;;;;;;;5.53;4.30;;;;;;;;;;5100615;28;20714;-34
2024/01/29 05:03:31;;;;;;;7.07;5.20;;;;;;;;;;5096699;28;20220;-32
2024/01/29 05:05:58;;;;;;;6.33;4.80;;;;;;;;;;5088114;28;20209;-32
2024/01/29 05:08:25;;;;;;;5.47;4.60;;;;;;;;;;5106906;28;20290;-32
2024/01/29 05:10:52;;;;;;;9.40;5.03;;;;;;;;;;5082576;28;20294;-31
2024/01/29 05:13:20;;;;;;;5.73;5.13;;;;;;;;;;5093810;28;20245;-35
2024/01/29 05:15:48;;;;;;;6.73;4.57;;;;;;;;;;5103679;28;20199;-33
2024/01/29 05:18:16;;;;;;;6.57;4.73;;;;;;;;;;5099629;28;20201;-34
2024/01/29 05:20:43;;;;;;;8.40;5.10;;;;;;;;;;5081592;28;20297;-33
2024/01/29 05:23:11;;;;;;;7.33;4.80;;;;;;;;;;5095247;28;20203;-33
2024/01/29 05:25:38;;;;;;;6.93;4.93;;;;;;;;;;5075230;28;20263;-33
2024/01/29 05:28:05;;;;;;;6.20;4.50;;;;;;;;;;5101217;28;20295;-33
2024/01/29 05:30:33;;;;;;;7.10;4.43;;;;;;;;;;5108616;28;20219;-35
2024/01/29 05:33:01;;;;;;;6.03;4.23;;;;;;;;;;5109579;28;20234;-30
2024/01/29 05:35:28;;;;;;;5.80;4.40;;;;;;;;;;5088130;28;20208;-35
2024/01/29 05:37:55;;;;;;;6.87;4.60;;;;;;;;;;5090705;28;20201;-33
2024/01/29 05:40:22;;;;;;;5.50;4.20;;;;;;;;;;5077885;28;20320;-30
2024/01/29 05:42:53;;;;;;;8.10;4.77;;;;;;;;;;5083456;28;20232;-31
2024/01/29 05:45:20;;;;;;;6.97;4.67;;;;;;;;;;5103890;28;20208;-35
2024/01/29 05:47:47;;;;;;;5.53;4.63;;;;;;;;;;5091379;28;20201;-34
2024/01/29 05:50:16;;;;;;;7.20;4.43;;;;;;;;;;5097117;28;20234;-31
2024/01/29 05:52:43;;;;;;;7.73;4.57;;;;;;;;;;5103186;28;20298;-35
2024/01/29 05:55:11;;;;;;;6.30;4.83;;;;;;;;;;5081119;28;20667;-37
2024/01/29 05:57:38;;;;;;;4.67;4.10;;;;;;;;;;5087587;28;20215;-33
2024/01/29 06:00:09;;;;;;;6.20;4.30;;;;;;;;;;5107173;28;20232;-29
2024/01/29 06:02:39;;;;;;;6.50;4.63;;;;;;;;;;5079548;28;20273;-34
2024/01/29 06:05:07;;;;;;;6.80;4.13;;;;;;;;;;5093221;28;20200;-33
2024/01/29 06:07:36;;;;;;;6.57;4.53;;;;;;;;;;5092055;28;20212;-32
2024/01/29 06:10:03;;;;;;;6.53;3.97;;;;;;;;;;5085636;28;20284;-33
2024/01/29 06:12:30;;;;;;;5.63;4.57;;;;;;;;;;5097413;28;20208;-33
2024/01/29 06:14:57;;;;;;;6.27;4.33;;;;;;;;;;5092241;28;20205;-32
2024/01/29 06:17:24;;;;;;;4.63;4.20;;;;;;;;;;5086865;28;20208;-32
2024/01/29 06:19:51;;;;;;;8.33;5.27;;;;;;;;;;5075562;28;20594;-33
2024/01/29 06:22:18;;;;;;;8.00;4.57;;;;;;;;;;5091423;28;20300;-32
2024/01/29 06:24:47;;;;;;;6.07;4.50;;;;;;;;;;5082086;28;20300;-31
2024/01/29 06:27:14;;;;;;;5.87;4.40;;;;;;;;;;5081596;28;20212;-34
2024/01/29 06:29:41;;;;;;;8.37;4.70;;;;;;;;;;5093368;28;20229;-33
2024/01/29 06:32:08;;;;;;;6.43;4.27;;;;;;;;;;5095505;28;20731;-34
2024/01/29 06:34:37;;;;;;;8.37;4.50;;;;;;;;;;5073712;28;20231;-31
2024/01/29 06:37:04;;;;;;;5.03;4.37;;;;;;;;;;5080989;28;20205;-32
2024/01/29 06:39:32;;;;;;;5.80;4.20;;;;;;;;;;5084580;28;20232;-32
2024/01/29 06:42:00;;;;;;;7.43;4.10;;;;;;;;;;5083234;28;20220;-32
2024/01/29 06:44:28;;;;;;;6.17;4.47;;;;;;;;;;5102591;28;20214;-35
2024/01/29 06:46:55;;;;;;;5.93;4.40;;;;;;;;;;5101120;28;20209;-35
2024/01/29 06:49:30;;;;;;;5.23;4.00;;;;;;;;;;5086070;28;20208;-35
2024/01/29 06:51:57;;;;;;;7.93;4.80;;;;;;;;;;5105312;28;20218;-35
2024/01/29 06:54:25;;;;;;;6.70;4.87;;;;;;;;;;5096697;28;20236;-34
2024/01/29 06:56:53;;;;;;;8.57;4.73;;;;;;;;;;5089524;28;20542;-31
2024/01/29 06:59:24;;;;;;;6.77;4.57;;;;;;;;;;5112111;28;20216;-32
2024/01/29 07:01:52;;;;;;;6.20;4.83;;;;;;;;;;5103672;28;20634;-32
2024/01/29 07:04:19;;;;;;;8.20;5.00;;;;;;;;;;5088024;28;20202;-33
2024/01/29 07:06:46;;;;;;;7.10;4.90;;;;;;;;;;5100894;28;20209;-31
2024/01/29 07:09:13;;;;;;;6.77;4.43;;;;;;;;;;5085356;28;20299;-31
2024/01/29 07:11:41;;;;;;;7.63;5.40;;;;;;;;;;5084591;28;20209;-30
2024/01/29 07:14:08;;;;;;;8.07;4.70;;;;;;;;;;5099799;28;20238;-33
2024/01/29 07:16:36;;;;;;;10.37;5.43;;;;;;;;;;5105235;28;20308;-36
2024/01/29 07:19:03;;;;;;;6.27;4.50;;;;;;;;;;5086168;28;20196;-32
2024/01/29 07:21:30;;;;;;;7.50;4.97;;;;;;;;;;5095046;28;20255;-29
2024/01/29 07:23:58;;;;;;;9.13;5.57;;;;;;;;;;5095135;28;20308;-31
2024/01/29 07:26:25;;;;;;;6.60;5.20;;;;;;;;;;5070454;28;20231;-34
2024/01/29 07:28:52;;;;;;;8.43;4.63;;;;;;;;;;5082032;28;20209;-34
2024/01/29 07:31:19;;;;;;;7.73;4.97;;;;;;;;;;5081643;28;20335;-30
2024/01/29 07:33:48;;;;;;;7.40;5.13;;;;;;;;;;5074424;28;20244;-33
2024/01/29 07:36:15;;;;;;;7.97;5.53;;;;;;;;;;5092982;28;20216;-31
2024/01/29 07:38:42;;;;;;;7.93;5.13;;;;;;;;;;5081829;28;20291;-36
2024/01/29 07:41:09;;;;;;;10.17;6.10;;;;;;;;;;5084343;28;20233;-30
2024/01/29 07:43:36;;;;;;;10.37;5.57;;;;;;;;;;5087556;28;20283;-32
2024/01/29 07:46:04;;;;;;;8.47;5.40;;;;;;;;;;5100619;28;20212;-33
2024/01/29 07:48:31;;;;;;;7.63;5.77;;;;;;;;;;5106372;28;20203;-28
2024/01/29 07:50:59;;;;;;;8.53;5.67;;;;;;;;;;5091484;28;20475;-30
2024/01/29 07:53:27;;;;;;;8.57;5.00;;;;;;;;;;5090635;28;20259;-37
2024/01/29 07:55:54;;;;;;;10.87;5.67;;;;;;;;;;5082144;28;20208;-33
2024/01/29 07:58:21;;;;;;;13.77;6.37;;;;;;;;;;5098057;28;20308;-35
2024/01/29 08:00:49;;;;;;;12.67;7.60;;;;;;;;;;5097822;28;20291;-33
2024/01/29 08:03:16;;;;;;;11.23;6.90;;;;;;;;;;5095987;28;20651;-33
2024/01/29 08:05:43;;;;;;;12.00;6.77;;;;;;;;;;5096420;28;20215;-30
2024/01/29 08:08:12;;;;;;;10.27;6.13;;;;;;;;;;5107083;28;20231;-35
2024/01/29 08:10:39;;;;;;;9.20;6.30;;;;;;;;;;5083205;28;20232;-31
2024/01/29 08:13:06;;;;;;;9.23;6.67;;;;;;;;;;5090823;28;20254;-32
2024/01/29 08:15:35;;;;;;;12.33;7.03;;;;;;;;;;5102202;28;20287;-32
2024/01/29 08:18:02;;;;;;;10.13;7.03;;;;;;;;;;5100729;28;20654;-31
2024/01/29 08:20:29;;;;;;;10.43;7.27;;;;;;;;;;5081878;28;20259;-39
2024/01/29 08:22:57;;;;;;;7.97;6.00;;;;;;;;;;5094004;28;20200;-30
2024/01/29 08:25:26;;;;;;;11.57;7.17;;;;;;;;;;5068601;28;20201;-31
2024/01/29 08:27:53;;;;;;;9.73;6.50;;;;;;;;;;5080285;28;20197;-31
2024/01/29 08:30:20;;;;;;;10.20;7.47;;;;;;;;;;5088626;28;20224;-34
2024/01/29 08:32:47;;;;;;;10.63;6.97;;;;;;;;;;5081507;28;20205;-37
2024/01/29 08:35:14;;;;;;;11.50;7.37;;;;;;;;;;5087708;28;20565;-34
2024/01/29 08:37:42;;;;;;;12.73;7.03;;;;;;;;;;5100528;28;20204;-32
2024/01/29 08:40:09;;;;;;;9.30;7.03;;;;;;;;;;5078023;28;20221;-33
2024/01/29 08:42:37;;;;;;;10.53;7.30;;;;;;;;;;5097971;28;20287;-33
2024/01/29 08:45:05;;;;;;;11.27;6.60;;;;;;;;;;5090486;28;20204;-32
2024/01/29 08:47:32;;;;;;;11.60;7.50;;;;;;;;;;5095491;28;20215;-35
2024/01/29 08:50:00;;;;;;;9.10;7.23;;;;;;;;;;5084481;28;20224;-36
2024/01/29 08:52:27;;;;;;;8.97;7.03;;;;;;;;;;5099231;28;20220;-29
2024/01/29 08:54:55;;;;;;;8.60;7.13;;;;;;;;;;5086173;28;20214;-33
2024/01/29 08:57:22;;;;;;;10.10;6.70;;;;;;;;;;5075587;28;20290;-37
2024/01/29 08:59:50;;;;;;;12.87;7.50;;;;;;;;;;5095008;28;20229;-32
2024/01/29 09:02:17;;;;;;;12.83;7.90;;;;;;;;;;5095548;28;20205;-34
2024/01/29 09:04:44;;;;;;;14.33;7.23;;;;;;;;;;5085792;28;20228;-32
2024/01/29 09:07:18;;;;;;;9.93;7.17;;;;;;;;;;5087095;28;20297;-31
2024/01/29 09:09:46;;;;;;;9.90;7.37;;;;;;;;;;5070641;28;20225;-31
2024/01/29 09:12:16;;;;;;;8.07;6.70;;;;;;;;;;5092943;28;20227;-32
2024/01/29 09:14:43;;;;;;;11.80;7.30;;;;;;;;;;5091464;28;20239;-34
2024/01/29 09:17:12;;;;;;;11.07;7.27;;;;;;;;;;5090587;28;20215;-36
2024/01/29 09:19:39;;;;;;;10.57;6.97;;;;;;;;;;5086201;28;20289;-35
2024/01/29 09:22:06;;;;;;;11.57;7.57;;;;;;;;;;5106153;28;20196;-32
2024/01/29 09:24:33;;;;;;;10.33;7.13;;;;;;;;;;5090489;28;20208;-38
2024/01/29 09:27:00;;;;;;;9.50;7.10;;;;;;;;;;5086276;28;20201;-39
2024/01/29 09:29:28;;;;;;;9.77;7.30;;;;;;;;;;5080472;28;20204;-35
2024/01/29 09:31:55;;;;;;;13.00;6.93;;;;;;;;;;5101872;28;20200;-32
2024/01/29 09:34:24;;;;;;;12.70;7.43;;;;;;;;;;5092783;28;20227;-34
2024/01/29 09:36:51;;;;;;;8.87;7.40;;;;;;;;;;5091677;28;20292;-32
2024/01/29 09:39:20;;;;;;;10.27;7.87;;;;;;;;;;5078725;28;20210;-34
2024/01/29 09:41:47;;;;;;;9.77;7.43;;;;;;;;;;5082218;28;20453;-34
2024/01/29 09:44:14;;;;;;;13.87;8.20;;;;;;;;;;5093876;28;20218;-36
2024/01/29 09:46:42;;;;;;;13.20;7.47;;;;;;;;;;5091738;28;20295;-34
2024/01/29 09:49:09;;;;;;;11.83;8.97;;;;;;;;;;5093153;28;20208;-35
2024/01/29 09:51:38;;;;;;;11.10;7.80;;;;;;;;;;5081922;28;20254;-29
2024/01/29 09:54:06;;;;;;;13.27;8.87;;;;;;;;;;5087798;28;20221;-33
2024/01/29 09:56:33;;;;;;;10.63;8.13;;;;;;;;;;5100356;28;20286;-31
2024/01/29 09:59:00;;;;;;;11.07;8.53;;;;;;;;;;5092066;28;20203;-31
2024/01/29 10:01:27;;;;;;;13.27;9.27;;;;;;;;;;5094407;28;20281;-34
2024/01/29 10:03:54;;;;;;;11.17;8.60;;;;;;;;;;5094769;28;20203;-39
2024/01/29 10:06:21;;;;;;;14.37;8.90;;;;;;;;;;5086370;28;20201;-39
2024/01/29 10:08:50;;;;;;;12.27;9.07;;;;;;;;;;5086282;28;20292;-33
2024/01/29 10:11:18;;;;;;;10.50;8.27;;;;;;;;;;5073822;28;20236;-36
2024/01/29 10:13:47;;;;;;;13.07;9.03;;;;;;;;;;5081095;28;20227;-32
2024/01/29 10:16:14;;;;;;;13.13;8.57;;;;;;;;;;5094879;28;20217;-32
2024/01/29 10:18:41;;;;;;;10.87;8.17;;;;;;;;;;5092019;28;20205;-37
2024/01/29 10:21:10;;;;;;;11.03;8.00;;;;;;;;;;5083144;28;20240;-35
2024/01/29 10:23:37;;;;;;;13.13;8.77;;;;;;;;;;5088895;28;20605;-34
2024/01/29 10:26:05;;;;;;;11.43;9.00;;;;;;;;;;5096501;28;20208;-34
2024/01/29 10:28:33;;;;;;;11.53;8.67;;;;;;;;;;5100094;28;20207;-34
2024/01/29 10:31:00;;;;;;;11.03;8.27;;;;;;;;;;5109085;28;20224;-35
2024/01/29 10:33:29;;;;;;;12.60;8.77;;;;;;;;;;5105253;28;20207;-32
2024/01/29 10:35:59;;;;;;;11.23;8.10;;;;;;;;;;5087851;28;20213;-35
2024/01/29 10:38:28;;;;;;;10.83;7.00;;;;;;;;;;5086498;28;20193;-39
2024/01/29 10:40:55;;;;;;;8.10;5.93;;;;;;;;;;5091952;28;20247;-34
2024/01/29 10:43:28;;;;;;;8.67;6.13;;;;;;;;;;5095706;28;20288;-36
2024/01/29 10:45:55;;;;;;;7.73;5.80;;;;;;;;;;5095505;28;20201;-32
2024/01/29 10:48:23;;;;;;;10.50;6.40;;;;;;;;;;5090151;28;20212;-38
2024/01/29 10:50:51;;;;;;;8.70;6.10;;;;;;;;;;5094967;28;20224;-35
2024/01/29 10:53:19;;;;;;;8.10;6.37;;;;;;;;;;5102914;28;20196;-33
2024/01/29 10:55:50;;;;;;;9.50;6.30;;;;;;;;;;5088683;28;20246;-33
2024/01/29 10:58:18;;;;;;;7.30;5.70;;;;;;;;;;5104297;28;20208;-32
2024/01/29 11:00:46;;;;;;;9.10;6.90;;;;;;;;;;5106370;28;20227;-30
2024/01/29 11:03:14;;;;;;;9.40;6.97;;;;;;;;;;5100404;28;20210;-34
2024/01/29 11:05:45;;;;;;;15.40;8.07;;;;;;;;;;5079177;28;20199;-35
2024/01/29 11:08:14;;;;;;;9.17;6.77;;;;;;;;;;5104554;28;20212;-33
2024/01/29 11:10:41;;;;;;;13.67;7.83;;;;;;;;;;5084463;28;20223;-30
2024/01/29 11:13:10;;;;;;;12.90;8.17;;;;;;;;;;5088509;28;20206;-30
2024/01/29 11:15:41;;;;;;;7.80;6.00;;;;;;;;;;5091535;28;20224;-37
2024/01/29 11:18:10;;;;;;;10.47;7.30;;;;;;;;;;5085549;28;20205;-31
2024/01/29 11:20:38;;;;;;;10.60;7.13;;;;;;;;;;5088083;28;20235;-34
2024/01/29 11:23:06;;;;;;;8.47;6.67;;;;;;;;;;5096434;28;20244;-36
2024/01/29 11:25:33;;;;;;;9.47;6.07;;;;;;;;;;5080459;28;20208;-31
2024/01/29 11:28:01;;;;;;;8.27;5.70;;;;;;;;;;5097805;28;20199;-34
2024/01/29 11:30:28;;;;;;;7.40;6.00;;;;;;;;;;5092568;28;20311;-32
2024/01/29 11:32:57;;;;;;;7.93;5.30;;;;;;;;;;5088205;28;20209;-33
2024/01/29 11:35:26;;;;;;;6.30;5.00;;;;;;;;;;5091694;28;20282;-32
2024/01/29 11:38:06;;;;;;;6.77;4.20;;;;;;;;;;5097708;28;20204;-34
2024/01/29 11:40:38;;;;;;;7.30;4.70;;;;;;;;;;5079029;28;20216;-36
2024/01/29 11:43:10;;;;;;;7.43;5.70;;;;;;;;;;5097288;28;20211;-32
2024/01/29 11:45:37;;;;;;;5.63;4.87;;;;;;;;;;5090373;28;20291;-31
2024/01/29 11:48:09;;;;;;;6.17;4.83;;;;;;;;;;5085037;28;20211;-35
2024/01/29 11:50:38;;;;;;;5.87;3.97;;;;;;;;;;5095591;28;20220;-33
2024/01/29 11:53:05;;;;;;;7.20;4.23;;;;;;;;;;5105866;28;20210;-33
2024/01/29 11:55:33;;;;;;;4.87;4.23;;;;;;;;;;5079593;28;20220;-30
2024/01/29 11:58:00;;;;;;;5.20;4.13;;;;;;;;;;5094498;28;20204;-36
2024/01/29 12:00:27;;;;;;;5.10;4.00;;;;;;;;;;5098790;28;20364;-33
2024/01/29 12:02:56;;;;;;;5.57;4.40;;;;;;;;;;5096246;28;20228;-34
2024/01/29 12:05:23;;;;;;;7.73;3.97;;;;;;;;;;5087458;28;20211;-33
2024/01/29 12:07:51;;;;;;;5.93;3.90;;;;;;;;;;5095341;28;20250;-31
2024/01/29 12:10:18;;;;;;;7.40;3.90;;;;;;;;;;5085899;28;20312;-30
2024/01/29 12:12:45;;;;;;;4.27;3.53;;;;;;;;;;5102617;28;20199;-36
2024/01/29 12:15:13;;;;;;;5.17;3.47;;;;;;;;;;5105792;28;20693;-35
2024/01/29 12:17:42;;;;;;;6.97;3.80;;;;;;;;;;5102002;28;20205;-37
2024/01/29 12:20:11;;;;;;;3.77;3.33;;;;;;;;;;5071708;28;20227;-32
2024/01/29 12:22:38;;;;;;;8.40;3.90;;;;;;;;;;5098641;28;20201;-33
2024/01/29 12:25:08;;;;;;;4.30;3.40;;;;;;;;;;5076559;28;20193;-33
2024/01/29 12:27:36;;;;;;;4.23;3.43;;;;;;;;;;5090475;28;20204;-30
2024/01/29 12:30:05;;;;;;;3.07;2.43;;;;;;;;;;5085628;28;20223;-30
2024/01/29 12:32:33;;;;;;;4.10;2.80;;;;;;;;;;5083266;28;20207;-32
2024/01/29 12:35:01;;;;;;;3.33;2.57;;;;;;;;;;5079314;28;20232;-36
2024/01/29 12:37:28;;;;;;;3.90;3.10;;;;;;;;;;5087437;28;20228;-32
2024/01/29 12:39:58;;;;;;;4.80;3.10;;;;;;;;;;5080576;28;20239;-32
2024/01/29 12:42:26;;;;;;;3.17;2.73;;;;;;;;;;5089612;28;20296;-32
2024/01/29 12:44:55;;;;;;;4.50;2.60;;;;;;;;;;5096982;28;20208;-33
2024/01/29 12:47:23;;;;;;;3.30;2.43;;;;;;;;;;5089499;28;20299;-34
2024/01/29 12:49:50;;;;;;;2.80;2.53;;;;;;;;;;5088600;28;20252;-31
2024/01/29 12:52:17;;;;;;;3.20;2.83;;;;;;;;;;5100596;28;20211;-36
2024/01/29 12:54:46;;;;;;;4.70;2.77;;;;;;;;;;5087410;28;20276;-32
2024/01/29 12:57:13;;;;;;;4.77;2.57;;;;;;;;;;5100141;28;20200;-35
2024/01/29 12:59:42;;;;;;;3.03;2.70;;;;;;;;;;5105844;28;20259;-31
2024/01/29 13:02:09;;;;;;;5.80;3.20;;;;;;;;;;5104470;28;20304;-35
2024/01/29 13:04:36;;;;;;;10.37;4.07;;;;;;;;;;5083950;28;20255;-33
2024/01/29 13:07:06;;;;;;;4.13;3.30;;;;;;;;;;5108577;28;20196;-31
2024/01/29 13:09:34;;;;;;;5.80;3.83;;;;;;;;;;5090873;28;20250;-32
2024/01/29 13:12:02;;;;;;;8.57;3.80;;;;;;;;;;5085428;28;20216;-33
2024/01/29 13:14:29;;;;;;;5.40;4.00;;;;;;;;;;5093749;28;20204;-34
2024/01/29 13:16:57;;;;;;;8.23;3.73;;;;;;;;;;5094660;28;20228;-32
2024/01/29 13:19:25;;;;;;;4.53;3.60;;;;;;;;;;5086827;28;20393;-35
2024/01/29 13:21:55;;;;;;;6.17;4.10;;;;;;;;;;5100182;28;20291;-35
2024/01/29 13:24:22;;;;;;;3.90;3.27;;;;;;;;;;5096919;28;20200;-31
2024/01/29 13:26:49;;;;;;;5.20;3.87;;;;;;;;;;5092465;28;20208;-34
2024/01/29 13:29:17;;;;;;;6.37;4.43;;;;;;;;;;5105336;28;20204;-35
2024/01/29 13:31:44;;;;;;;5.13;4.00;;;;;;;;;;5097294;28;20200;-32
2024/01/29 13:34:19;;;;;;;7.13;3.90;;;;;;;;;;5087307;28;20292;-33
2024/01/29 13:36:48;;;;;;;5.27;4.00;;;;;;;;;;5097819;28;20310;-36
2024/01/29 13:39:17;;;;;;;6.07;3.77;;;;;;;;;;5096467;28;20463;-31
2024/01/29 13:41:44;;;;;;;3.87;3.53;;;;;;;;;;5085773;28;20236;-36
2024/01/29 13:44:11;;;;;;;6.33;3.30;;;;;;;;;;5093491;28;20296;-31
2024/01/29 13:46:38;;;;;;;4.03;3.10;;;;;;;;;;5101814;28;20380;-37
2024/01/29 13:49:06;;;;;;;3.87;3.17;;;;;;;;;;5085795;28;20212;-34
2024/01/29 13:51:34;;;;;;;4.40;2.70;;;;;;;;;;5094711;28;20221;-33
2024/01/29 13:54:01;;;;;;;3.37;2.77;;;;;;;;;;5096593;28;20196;-33
2024/01/29 13:56:28;;;;;;;2.90;2.60;;;;;;;;;;5088184;28;20243;-33
2024/01/29 13:58:56;;;;;;;2.93;2.63;;;;;;;;;;5111692;28;20200;-33
2024/01/29 14:01:23;;;;;;;3.03;2.73;;;;;;;;;;5111891;28;20236;-36
2024/01/29 14:03:50;;;;;;;3.03;2.73;;;;;;;;;;5087431;28;20638;-38
2024/01/29 14:06:17;;;;;;;3.60;3.30;;;;;;;;;;5097908;28;20295;-34
2024/01/29 14:08:45;;;;;;;4.03;3.13;;;;;;;;;;5110729;28;20204;-33
2024/01/29 14:11:13;;;;;;;6.70;2.87;;;;;;;;;;5082312;28;20220;-33
2024/01/29 14:13:40;;;;;;;3.87;3.00;;;;;;;;;;5095846;28;20212;-31
2024/01/29 14:16:07;;;;;;;3.40;2.70;;;;;;;;;;5107153;28;20216;-33
2024/01/29 14:18:35;;;;;;;4.77;2.63;;;;;;;;;;5089037;28;20208;-31
2024/01/29 14:21:04;;;;;;;3.23;2.70;;;;;;;;;;5101188;28;20216;-33
2024/01/29 14:23:31;;;;;;;3.73;2.67;;;;;;;;;;5096690;28;20261;-32
2024/01/29 14:26:00;;;;;;;3.50;3.20;;;;;;;;;;5082599;28;20200;-33
2024/01/29 14:28:27;;;;;;;3.77;3.17;;;;;;;;;;5101123;28;20205;-34
2024/01/29 14:30:55;;;;;;;3.93;3.07;;;;;;;;;;5100526;28;20288;-33
2024/01/29 14:33:22;;;;;;;3.60;3.27;;;;;;;;;;5097734;28;20209;-33
2024/01/29 14:35:51;;;;;;;3.13;2.80;;;;;;;;;;5085669;28;20217;-34
2024/01/29 14:38:18;;;;;;;3.10;2.80;;;;;;;;;;5100702;28;20231;-33
2024/01/29 14:40:45;;;;;;;5.90;3.37;;;;;;;;;;5096731;28;20228;-32
2024/01/29 14:43:14;;;;;;;3.83;3.20;;;;;;;;;;5093360;28;20200;-36